createdAt,value
2022-08-26T06:28:01.229Z,54.87
2022-08-26T06:29:04.349Z,54.58
2022-08-26T06:30:04.027Z,54.6
2022-08-26T06:31:06.959Z,54.71
2022-08-26T06:32:08.984Z,54.76
2022-08-26T06:33:08.758Z,55.05
2022-08-26T06:34:11.151Z,55.34
2022-08-26T06:35:12.445Z,55.58
2022-08-26T06:36:15.384Z,55.75
2022-08-26T06:37:14.501Z,56.09
2022-08-26T06:38:14.921Z,56.35
2022-08-26T06:39:18.025Z,56.65
2022-08-26T06:40:20.555Z,56.94
2022-08-26T06:41:23.682Z,57.06
2022-08-26T06:42:24.499Z,57.33
2022-08-26T06:43:28.822Z,57.23
2022-08-26T06:44:28.359Z,57.29
2022-08-26T06:45:31.494Z,57.43
2022-08-26T06:46:31.603Z,57.36
2022-08-26T06:47:35.926Z,57.1
2022-08-26T06:48:35.515Z,57.15
2022-08-26T06:49:40.017Z,57.07
2022-08-26T06:50:40.436Z,57.17
2022-08-26T06:51:39.794Z,57.14
2022-08-26T06:52:42.634Z,56.92
2022-08-26T06:53:45.680Z,56.78
2022-08-26T06:54:51.415Z,56.98
2022-08-26T06:55:52.036Z,56.84
2022-08-26T06:56:51.687Z,56.9
2022-08-26T06:57:54.501Z,56.94
2022-08-26T06:58:57.363Z,57.11
2022-08-26T07:00:00.630Z,57.06
2022-08-26T07:01:11.871Z,56.88
2022-08-26T07:02:04.971Z,57
2022-08-26T07:03:05.023Z,56.83
2022-08-26T07:04:10.392Z,56.84
2022-08-26T07:05:07.891Z,56.9
2022-08-26T07:06:09.027Z,57.02
2022-08-26T07:07:11.814Z,56.97
2022-08-26T07:08:14.604Z,57.08
2022-08-26T07:09:17.378Z,56.71
2022-08-26T07:10:20.591Z,56.56
2022-08-26T07:11:24.386Z,56.67
2022-08-26T07:12:25.238Z,56.73
2022-08-26T07:13:31.112Z,56.41
2022-08-26T07:14:26.969Z,56.32
2022-08-26T07:15:31.812Z,56.25
2022-08-26T07:16:33.843Z,56.38
2022-08-26T07:17:34.287Z,56.3
2022-08-26T07:18:34.764Z,56.18
2022-08-26T07:19:37.562Z,56.4
2022-08-26T07:20:42.476Z,56.23
2022-08-26T07:21:42.502Z,56.11
2022-08-26T07:22:45.300Z,56.3
2022-08-26T07:23:49.254Z,55.98
2022-08-26T07:24:49.115Z,55.96
2022-08-26T07:25:52.295Z,56.18
2022-08-26T07:26:55.120Z,55.94
2022-08-26T07:27:58.607Z,55.84
2022-08-26T07:28:59.584Z,55.55
2022-08-26T07:30:04.278Z,55.35
2022-08-26T07:31:07.846Z,55.35
2022-08-26T07:32:09.322Z,55.34
2022-08-26T07:33:11.157Z,55.32
2022-08-26T07:34:10.589Z,55.2
2022-08-26T07:35:13.401Z,54.54
2022-08-26T07:36:16.451Z,54.81
2022-08-26T07:37:20.391Z,54.24
2022-08-26T07:38:23.303Z,53.41
2022-08-26T07:39:24.694Z,53.23
2022-08-26T07:40:31.082Z,53.23
2022-08-26T07:42:31.187Z,53.02
2022-08-26T07:43:38.320Z,53.17
2022-08-26T07:44:36.648Z,53.15
2022-08-26T07:45:39.529Z,53.29
2022-08-26T07:46:44.319Z,52.8
2022-08-26T07:47:42.454Z,52.67
2022-08-26T07:48:49.812Z,52.27
2022-08-26T07:49:52.994Z,52.4
2022-08-26T07:50:50.844Z,52.27
2022-08-26T07:51:49.119Z,52.11
2022-08-26T07:52:53.301Z,52.23
2022-08-26T07:53:58.737Z,52.58
2022-08-26T07:55:15.657Z,52.18
2022-08-26T07:55:56.263Z,52.12
2022-08-26T07:56:59.672Z,51.73
2022-08-26T07:57:59.197Z,51.67
2022-08-26T07:59:03.001Z,51.3
2022-08-26T08:00:04.191Z,50.81
2022-08-26T08:01:07.646Z,50.89
2022-08-26T08:02:07.407Z,50.78
2022-08-26T08:03:08.973Z,50.46
2022-08-26T08:04:14.180Z,50.23
2022-08-26T08:05:10.934Z,50.56
2022-08-26T08:06:11.334Z,50.83
2022-08-26T08:07:14.228Z,50.44
2022-08-26T08:08:29.258Z,49.42
2022-08-26T08:09:22.656Z,49.25
2022-08-26T08:10:25.530Z,49.08
2022-08-26T08:11:22.596Z,49.32
2022-08-26T08:12:25.775Z,50.02
2022-08-26T08:13:29.032Z,48.93
2022-08-26T08:14:28.707Z,49.1
2022-08-26T08:15:31.626Z,48.86
2022-08-26T08:16:42.448Z,48.58
2022-08-26T08:17:33.110Z,48.6
2022-08-26T08:18:35.868Z,48.85
2022-08-26T08:19:39.473Z,49.14
2022-08-26T08:20:54.574Z,48.19
2022-08-26T08:21:41.644Z,47.9
2022-08-26T08:22:43.563Z,47.73
2022-08-26T08:23:45.616Z,47.66
2022-08-26T08:24:50.144Z,47.43
2022-08-26T08:25:49.398Z,47.14
2022-08-26T08:26:51.386Z,48.05
2022-08-26T08:27:53.027Z,47.43
2022-08-26T08:28:53.600Z,47.36
2022-08-26T08:29:54.052Z,47.68
2022-08-26T08:30:54.259Z,48.18
2022-08-26T08:31:58.883Z,48.09
2022-08-26T08:33:05.822Z,47.52
2022-08-26T08:34:05.790Z,47.46
2022-08-26T08:35:11.966Z,47.54
2022-08-26T08:36:09.559Z,46.96
2022-08-26T08:37:11.071Z,47.45
2022-08-26T08:38:10.669Z,46.83
2022-08-26T08:39:11.960Z,46.4
2022-08-26T08:40:15.018Z,46.07
2022-08-26T08:41:20.841Z,44.92
2022-08-26T08:42:23.932Z,44.23
2022-08-26T08:43:23.252Z,44.42
2022-08-26T08:45:35.865Z,44.03
2022-08-26T08:46:30.439Z,43.27
2022-08-26T08:47:30.965Z,43.54
2022-08-26T08:48:33.766Z,43.2
2022-08-26T08:49:36.590Z,43.2
2022-08-26T08:50:41.598Z,42.94
2022-08-26T08:51:43.968Z,43.05
2022-08-26T08:52:43.845Z,43.31
2022-08-26T08:53:46.819Z,43.09
2022-08-26T08:54:50.006Z,42.72
2022-08-26T08:55:50.046Z,42.89
2022-08-26T08:56:52.926Z,42.59
2022-08-26T08:58:02.586Z,42.07
2022-08-26T08:58:59.004Z,42.36
2022-08-26T08:59:59.820Z,41.94
2022-08-26T09:01:02.640Z,41.47
2022-08-26T09:02:00.672Z,40.91
2022-08-26T09:03:01.806Z,40.88
2022-08-26T09:04:04.613Z,40.86
2022-08-26T09:05:07.886Z,40.68
2022-08-26T09:06:07.792Z,40.91
2022-08-26T09:07:08.476Z,41.21
2022-08-26T09:08:12.017Z,40.88
2022-08-26T09:09:11.857Z,41.4
2022-08-26T09:10:14.630Z,40.64
2022-08-26T09:11:17.549Z,39.99
2022-08-26T09:12:20.335Z,39.67
2022-08-26T09:13:27.252Z,38.73
2022-08-26T09:14:23.381Z,38.83
2022-08-26T09:15:30.598Z,39.17
2022-08-26T09:16:26.756Z,38.38
2022-08-26T09:17:29.907Z,38.07
2022-08-26T09:18:32.851Z,37.95
2022-08-26T09:19:36.343Z,37.59
2022-08-26T09:20:37.281Z,37.41
2022-08-26T09:21:37.420Z,37.81
2022-08-26T09:22:40.272Z,39.06
2022-08-26T09:23:43.116Z,38.57
2022-08-26T09:24:49.417Z,36.82
2022-08-26T09:25:46.252Z,37.1
2022-08-26T09:26:48.165Z,36.54
2022-08-26T09:27:51.967Z,36.09
2022-08-26T09:28:53.231Z,36.12
2022-08-26T09:29:54.063Z,35.59
2022-08-26T09:30:57.068Z,35.77
2022-08-26T09:32:00.056Z,34.9
2022-08-26T09:33:02.847Z,34.96
2022-08-26T09:34:03.682Z,34.89
2022-08-26T09:35:07.167Z,35.14
2022-08-26T09:36:10.451Z,36.96
2022-08-26T09:37:12.825Z,34.93
2022-08-26T09:38:15.416Z,34.64
2022-08-26T09:39:14.812Z,33.6
2022-08-26T09:40:18.134Z,34.19
2022-08-26T09:41:19.793Z,33.31
2022-08-26T09:42:20.697Z,33.32
2022-08-26T09:43:23.495Z,33.79
2022-08-26T09:44:26.305Z,33
2022-08-26T09:45:30.072Z,33.46
2022-08-26T09:46:29.968Z,32.87
2022-08-26T09:47:29.737Z,32.98
2022-08-26T09:48:36.616Z,33.54
2022-08-26T09:49:36.593Z,33.37
2022-08-26T09:50:36.052Z,33.93
2022-08-26T09:51:39.153Z,33.76
2022-08-26T09:52:43.049Z,33.92
2022-08-26T09:53:42.505Z,33.52
2022-08-26T09:54:46.253Z,33.82
2022-08-26T09:55:45.678Z,33.33
2022-08-26T09:56:48.443Z,32.84
2022-08-26T09:57:51.569Z,33.21
2022-08-26T09:58:54.352Z,33.33
2022-08-26T09:59:57.127Z,33.5
2022-08-26T10:01:00.147Z,32.98
2022-08-26T10:02:12.385Z,32.9
2022-08-26T10:03:05.471Z,33.66
2022-08-26T10:04:08.707Z,33.38
2022-08-26T10:05:11.761Z,33.28
2022-08-26T10:06:14.898Z,33.06
2022-08-26T10:07:16.212Z,32.89
2022-08-26T10:08:15.890Z,33.88
2022-08-26T10:09:19.080Z,33.71
2022-08-26T10:10:19.500Z,33.05
2022-08-26T10:11:22.787Z,33.67
2022-08-26T10:12:25.625Z,33.26
2022-08-26T10:13:29.863Z,32.56
2022-08-26T10:14:30.564Z,32.46
2022-08-26T10:15:29.934Z,32.55
2022-08-26T10:16:32.073Z,32.02
2022-08-26T10:17:36.803Z,31.91
2022-08-26T10:18:36.082Z,31.95
2022-08-26T10:19:57.766Z,32.52
2022-08-26T10:20:40.471Z,32.56
2022-08-26T10:21:44.068Z,31.35
2022-08-26T10:22:47.032Z,31.12
2022-08-26T10:23:47.961Z,30.86
2022-08-26T10:24:55.245Z,30.86
2022-08-26T10:25:52.476Z,30.78
2022-08-26T10:26:51.763Z,31.1
2022-08-26T10:27:55.556Z,30.14
2022-08-26T10:28:54.919Z,30.22
2022-08-26T10:29:57.924Z,30.47
2022-08-26T10:31:00.756Z,30.22
2022-08-26T10:32:13.699Z,30.73
2022-08-26T10:33:03.567Z,30.65
2022-08-26T10:34:06.357Z,30.43
2022-08-26T10:35:09.162Z,30.05
2022-08-26T10:36:20.409Z,30.34
2022-08-26T10:37:16.700Z,30.06
2022-08-26T10:38:14.063Z,30.27
2022-08-26T10:39:17.237Z,29.97
2022-08-26T10:40:29.102Z,31.34
2022-08-26T10:41:22.896Z,31.19
2022-08-26T10:42:22.274Z,31.64
2022-08-26T10:43:26.722Z,30.82
2022-08-26T10:44:26.005Z,30.38
2022-08-26T10:45:29.327Z,30.74
2022-08-26T10:46:28.913Z,30.57
2022-08-26T10:47:31.713Z,31.79
2022-08-26T10:48:36.459Z,31.55
2022-08-26T10:49:35.784Z,31.37
2022-08-26T10:50:41.326Z,32.15
2022-08-26T10:51:41.864Z,31.79
2022-08-26T10:52:45.198Z,31.26
2022-08-26T10:53:51.776Z,31.59
2022-08-26T10:54:48.480Z,31.33
2022-08-26T10:55:54.240Z,32.41
2022-08-26T10:56:56.069Z,30.63
2022-08-26T10:57:54.230Z,30.6
2022-08-26T10:58:57.004Z,31.32
2022-08-26T10:59:59.841Z,29.29
2022-08-26T11:01:15.560Z,29.19
2022-08-26T11:02:06.862Z,30.12
2022-08-26T11:03:22.708Z,30.06
2022-08-26T11:04:08.643Z,29.62
2022-08-26T11:05:09.044Z,29.85
2022-08-26T11:06:12.620Z,29.57
2022-08-26T11:07:12.253Z,30.44
2022-08-26T11:08:15.696Z,30.12
2022-08-26T11:09:17.137Z,28.91
2022-08-26T11:10:19.925Z,28.95
2022-08-26T11:11:23.527Z,29.24
2022-08-26T11:12:22.817Z,30.26
2022-08-26T11:13:24.142Z,28.29
2022-08-26T11:14:32.191Z,27.8
2022-08-26T11:15:27.941Z,27.42
2022-08-26T11:16:27.778Z,28.3
2022-08-26T11:17:27.416Z,28.19
2022-08-26T11:18:31.045Z,27.93
2022-08-26T11:20:02.076Z,28.64
2022-08-26T11:20:34.941Z,28.43
2022-08-26T11:21:36.126Z,29.77
2022-08-26T11:22:36.590Z,28.65
2022-08-26T11:23:43.141Z,29.2
2022-08-26T11:24:42.512Z,28.81
2022-08-26T11:25:45.938Z,29.15
2022-08-26T11:26:56.891Z,30.24
2022-08-26T11:27:49.709Z,30.46
2022-08-26T11:28:53.296Z,30.32
2022-08-26T11:29:54.744Z,30.55
2022-08-26T11:30:58.536Z,30.96
2022-08-26T11:31:58.489Z,31.91
2022-08-26T11:32:58.688Z,31.08
2022-08-26T11:34:02.783Z,32.38
2022-08-26T11:35:02.109Z,32.18
2022-08-26T11:36:12.587Z,31.86
2022-08-26T11:37:05.042Z,31.96
2022-08-26T11:38:05.795Z,33.37
2022-08-26T11:39:10.494Z,33
2022-08-26T11:40:10.633Z,32.88
2022-08-26T11:41:10.360Z,34.21
2022-08-26T11:42:10.959Z,33.38
2022-08-26T11:43:13.924Z,33.01
2022-08-26T11:44:16.839Z,32.98
2022-08-26T11:45:17.139Z,32.73
2022-08-26T11:46:20.113Z,32.8
2022-08-26T11:47:24.673Z,32.46
2022-08-26T11:48:24.384Z,32.87
2022-08-26T11:49:24.152Z,32.66
2022-08-26T11:50:26.954Z,32.73
2022-08-26T11:51:32.890Z,32.55
2022-08-26T11:52:32.850Z,33.08
2022-08-26T11:53:33.527Z,33.23
2022-08-26T11:54:36.343Z,33.49
2022-08-26T11:55:39.380Z,33.8
2022-08-26T11:56:42.209Z,33.74
2022-08-26T11:57:45.011Z,34.11
2022-08-26T11:58:47.783Z,34.71
2022-08-26T11:59:50.868Z,34.39
2022-08-26T12:00:55.995Z,34.71
2022-08-26T12:01:55.606Z,34.88
2022-08-26T12:02:58.443Z,35.33
2022-08-26T12:04:01.650Z,34.46
2022-08-26T12:05:02.190Z,34.57
2022-08-26T12:06:04.958Z,34.92
2022-08-26T12:07:08.843Z,34.45
2022-08-26T12:08:09.855Z,33.87
2022-08-26T12:09:10.045Z,33.87
2022-08-26T12:10:13.410Z,33.69
2022-08-26T12:11:16.228Z,33.53
2022-08-26T12:12:19.496Z,33.69
2022-08-26T12:13:22.511Z,33.49
2022-08-26T12:14:27.975Z,33.61
2022-08-26T12:15:29.893Z,33.61
2022-08-26T12:16:30.243Z,33.88
2022-08-26T12:17:30.405Z,33.81
2022-08-26T12:18:33.905Z,34.03
2022-08-26T12:19:33.611Z,34.59
2022-08-26T12:20:36.440Z,34.7
2022-08-26T12:21:37.361Z,34.53
2022-08-26T12:22:37.829Z,35.12
2022-08-26T12:23:40.667Z,34.79
2022-08-26T12:24:43.518Z,33.9
2022-08-26T12:25:46.287Z,35.16
2022-08-26T12:26:47.511Z,34.76
2022-08-26T12:27:54.203Z,33.39
2022-08-26T12:28:53.558Z,33.39
2022-08-26T12:29:56.399Z,33.7
2022-08-26T12:31:01.123Z,33.85
2022-08-26T12:32:00.661Z,33.68
2022-08-26T12:33:23.288Z,33.54
2022-08-26T12:34:05.342Z,32.41
2022-08-26T12:35:08.215Z,31.46
2022-08-26T12:36:14.830Z,31.56
2022-08-26T12:37:18.838Z,32.59
2022-08-26T12:38:18.582Z,32.27
2022-08-26T12:39:17.905Z,32.16
2022-08-26T12:40:21.296Z,32.64
2022-08-26T12:41:23.119Z,31.39
2022-08-26T12:42:25.943Z,31.18
2022-08-26T12:43:32.854Z,31.65
2022-08-26T12:44:29.642Z,32.64
2022-08-26T12:45:33.103Z,31.99
2022-08-26T12:46:36.145Z,31.66
2022-08-26T12:47:44.079Z,32.18
2022-08-26T12:48:40.302Z,30.68
2022-08-26T12:49:43.111Z,30.88
2022-08-26T12:50:45.917Z,30.12
2022-08-26T12:51:48.686Z,31.01
2022-08-26T12:52:51.492Z,31.2
2022-08-26T12:53:54.267Z,31.47
2022-08-26T12:54:57.418Z,30.88
2022-08-26T12:56:00.228Z,30.77
2022-08-26T12:57:03.050Z,29.9
2022-08-26T12:58:05.925Z,30.21
2022-08-26T12:59:13.483Z,30.69
2022-08-26T13:00:12.248Z,30.32
2022-08-26T13:01:15.383Z,30.21
2022-08-26T13:02:18.595Z,29.6
2022-08-26T13:03:23.879Z,29.27
2022-08-26T13:04:24.583Z,29.29
2022-08-26T13:05:27.356Z,29.9
2022-08-26T13:06:30.243Z,29.8
2022-08-26T13:07:33.013Z,30.25
2022-08-26T13:08:35.780Z,29.49
2022-08-26T13:09:38.583Z,29.62
2022-08-26T13:10:41.371Z,29.42
2022-08-26T13:11:44.167Z,30
2022-08-26T13:12:46.970Z,30.25
2022-08-26T13:13:49.951Z,30.49
2022-08-26T13:14:52.747Z,29.87
2022-08-26T13:15:59.004Z,30.66
2022-08-26T13:16:55.796Z,30.18
2022-08-26T13:18:02.177Z,30.3
2022-08-26T13:19:01.495Z,30.51
2022-08-26T13:20:06.867Z,28.81
2022-08-26T13:21:06.161Z,28.59
2022-08-26T13:22:08.935Z,28.34
2022-08-26T13:23:12.369Z,27.75
2022-08-26T13:24:12.503Z,27.79
2022-08-26T13:25:19.846Z,27.82
2022-08-26T13:26:15.802Z,27.93
2022-08-26T13:27:18.613Z,28.52
2022-08-26T13:28:21.412Z,29.16
2022-08-26T13:29:24.875Z,28.45
2022-08-26T13:30:25.400Z,29.28
2022-08-26T13:31:27.277Z,29.86
2022-08-26T13:32:27.936Z,29.27
2022-08-26T13:33:27.548Z,28.23
2022-08-26T13:34:28.020Z,28.29
2022-08-26T13:35:30.802Z,28.2
2022-08-26T13:36:33.597Z,28.95
2022-08-26T13:37:36.368Z,29
2022-08-26T13:38:39.149Z,28.47
2022-08-26T13:39:41.982Z,28.45
2022-08-26T13:40:44.779Z,26.9
2022-08-26T13:41:47.579Z,27.47
2022-08-26T13:42:50.359Z,26.41
2022-08-26T13:43:53.167Z,26.38
2022-08-26T13:44:55.938Z,27.07
2022-08-26T13:45:58.713Z,26.62
2022-08-26T13:47:01.506Z,26.88
2022-08-26T13:48:04.295Z,26.77
2022-08-26T13:49:07.113Z,27.05
2022-08-26T13:50:09.893Z,26.8
2022-08-26T13:51:12.705Z,27.66
2022-08-26T13:52:15.543Z,27.35
2022-08-26T13:53:18.385Z,27.23
2022-08-26T13:54:21.213Z,27.51
2022-08-26T13:55:24.062Z,28.11
2022-08-26T13:56:26.926Z,28.85
2022-08-26T13:57:29.843Z,29.79
2022-08-26T13:58:33.100Z,28.87
2022-08-26T13:59:36.762Z,28.04
2022-08-26T14:00:36.429Z,28.34
2022-08-26T14:01:39.366Z,28.89
2022-08-26T14:02:42.194Z,28.72
2022-08-26T14:03:45.294Z,28.92
2022-08-26T14:04:45.098Z,30.32
2022-08-26T14:05:47.908Z,30.26
2022-08-26T14:06:50.698Z,29.67
2022-08-26T14:07:53.482Z,29.8
2022-08-26T14:08:56.260Z,30.35
2022-08-26T14:09:59.073Z,29.88
2022-08-26T14:11:01.883Z,29.8
2022-08-26T14:12:04.654Z,30.65
2022-08-26T14:13:07.837Z,30.9
2022-08-26T14:14:10.817Z,31.63
2022-08-26T14:15:13.619Z,31.81
2022-08-26T14:16:17.184Z,31.62
2022-08-26T14:17:19.860Z,31.72
2022-08-26T14:18:26.461Z,31.93
2022-08-26T14:19:24.713Z,31.55
2022-08-26T14:20:27.499Z,31.14
2022-08-26T14:21:30.270Z,30.9
2022-08-26T14:22:33.034Z,30.68
2022-08-26T14:23:35.797Z,30.26
2022-08-26T14:24:38.586Z,31.72
2022-08-26T14:25:41.371Z,30.88
2022-08-26T14:26:44.165Z,31.33
2022-08-26T14:27:46.974Z,31.4
2022-08-26T14:28:49.748Z,31.67
2022-08-26T14:29:52.608Z,31.79
2022-08-26T14:30:55.554Z,31.54
2022-08-26T14:31:58.545Z,30.93
2022-08-26T14:33:01.312Z,32.13
2022-08-26T14:34:04.100Z,31.65
2022-08-26T14:35:06.880Z,32.9
2022-08-26T14:36:09.694Z,31.84
2022-08-26T14:37:15.551Z,31.45
2022-08-26T14:38:15.024Z,31.84
2022-08-26T14:39:17.811Z,31.75
2022-08-26T14:40:20.891Z,31.84
2022-08-26T14:41:24.046Z,32.08
2022-08-26T14:42:31.728Z,32.74
2022-08-26T14:43:27.686Z,32.69
2022-08-26T14:44:30.463Z,33.26
2022-08-26T14:45:33.455Z,33.45
2022-08-26T14:46:36.689Z,33.86
2022-08-26T14:47:42.737Z,33.05
2022-08-26T14:48:42.373Z,32.91
2022-08-26T14:49:45.193Z,32.81
2022-08-26T14:50:48.039Z,32.7
2022-08-26T14:51:50.834Z,32.83
2022-08-26T14:52:53.650Z,34.76
2022-08-26T14:53:56.460Z,34.18
2022-08-26T14:54:59.261Z,33.19
2022-08-26T14:56:02.047Z,33.36
2022-08-26T14:57:04.866Z,33.4
2022-08-26T14:58:08.202Z,33.23
2022-08-26T14:59:07.984Z,34.98
2022-08-26T15:00:10.772Z,34.61
2022-08-26T15:01:13.563Z,34.33
2022-08-26T15:02:34.072Z,34.31
2022-08-26T15:04:19.293Z,34.44
2022-08-26T15:05:22.076Z,35.5
2022-08-26T15:06:24.877Z,34.58
2022-08-26T15:07:27.684Z,35.83
2022-08-26T15:08:30.490Z,34.28
2022-08-26T15:09:33.296Z,34.72
2022-08-26T15:10:36.118Z,34.52
2022-08-26T15:11:38.938Z,34.87
2022-08-26T15:12:41.732Z,34.75
2022-08-26T15:13:44.519Z,34.67
2022-08-26T15:14:47.285Z,34.86
2022-08-26T15:15:50.325Z,34.89
2022-08-26T15:16:53.312Z,35.05
2022-08-26T15:17:56.121Z,35.02
2022-08-26T15:18:59.024Z,35.15
2022-08-26T15:20:01.856Z,35.2
2022-08-26T15:21:04.675Z,35.49
2022-08-26T15:22:07.446Z,35.85
2022-08-26T15:23:11.194Z,36.85
2022-08-26T15:24:11.182Z,37.71
2022-08-26T15:25:13.956Z,38.09
2022-08-26T15:26:16.768Z,38.75
2022-08-26T15:27:19.539Z,39.44
2022-08-26T15:28:22.534Z,39.8
2022-08-26T15:29:25.337Z,40.15
2022-08-26T15:30:28.102Z,40.45
2022-08-26T15:31:31.153Z,40.68
2022-08-26T15:32:34.169Z,41
2022-08-26T15:33:36.992Z,41.13
2022-08-26T15:34:39.898Z,41.36
2022-08-26T15:35:43.213Z,41.58
2022-08-26T15:36:46.171Z,41.34
2022-08-26T15:37:56.596Z,40.91
2022-08-26T15:38:52.467Z,41.04
2022-08-26T15:39:55.417Z,40.85
2022-08-26T15:41:03.262Z,40.62
2022-08-26T15:41:59.227Z,40.74
2022-08-26T15:43:28.888Z,40.77
2022-08-26T15:44:04.332Z,40.46
2022-08-26T15:45:07.098Z,40.46
2022-08-26T15:46:09.974Z,40.14
2022-08-26T15:47:12.977Z,40.37
2022-08-26T15:48:16.564Z,40.34
2022-08-26T15:49:18.866Z,39.92
2022-08-26T15:50:18.335Z,40.17
2022-08-26T15:51:22.695Z,39.76
2022-08-26T15:52:22.069Z,40.01
2022-08-26T15:53:24.837Z,39.75
2022-08-26T15:54:27.641Z,39.8
2022-08-26T15:55:30.410Z,39.69
2022-08-26T15:56:30.541Z,39.73
2022-08-26T15:57:33.347Z,39.63
2022-08-26T15:58:36.494Z,39.57
2022-08-26T15:59:39.289Z,39.62
2022-08-26T16:00:42.077Z,39.59
2022-08-26T16:01:45.128Z,39.64
2022-08-26T16:02:48.096Z,39.48
2022-08-26T16:03:50.865Z,39.58
2022-08-26T16:04:54.561Z,39.5
2022-08-26T16:05:54.100Z,39.68
2022-08-26T16:06:57.164Z,39.97
2022-08-26T16:08:00.072Z,40.34
2022-08-26T16:09:02.867Z,40.55
2022-08-26T16:10:05.686Z,40.38
2022-08-26T16:11:08.489Z,40.74
2022-08-26T16:13:15.255Z,41.12
2022-08-26T16:14:15.107Z,41.37
2022-08-26T16:15:17.910Z,41.54
2022-08-26T16:17:23.996Z,41.94
2022-08-26T16:18:26.323Z,41.96
2022-08-26T16:19:44.255Z,42.2
2022-08-26T16:21:30.661Z,41.99
2022-08-26T16:22:58.425Z,41.86
2022-08-26T16:23:34.423Z,42.01
2022-08-26T16:24:39.674Z,41.65
2022-08-26T16:25:35.875Z,41.71
2022-08-26T16:26:45.297Z,41.9
2022-08-26T16:27:43.254Z,41.92
2022-08-26T16:28:58.464Z,42.55
2022-08-26T22:12:55.142Z,64.49
2022-08-26T22:13:17.027Z,64.71
2022-08-26T22:14:20.037Z,64.83
2022-08-26T22:15:28.370Z,64.39
2022-08-26T22:16:34.793Z,64.43
2022-08-26T22:17:25.109Z,64.02
2022-08-26T22:18:28.111Z,64.15
2022-08-26T22:19:46.007Z,64.61
2022-08-26T22:20:32.692Z,64.24
2022-08-26T22:21:35.997Z,64.49
2022-08-26T22:23:00.272Z,65.01
2022-08-26T22:23:39.232Z,65.51
2022-08-26T22:24:42.450Z,66.1
2022-08-26T22:25:44.536Z,66.85
2022-08-26T22:26:48.863Z,67.35
2022-08-26T22:27:48.200Z,67.78
2022-08-26T22:28:59.385Z,68.22
2022-08-26T22:29:51.898Z,68.49
2022-08-26T22:30:54.683Z,68.93
2022-08-26T22:31:57.810Z,69.23
2022-08-26T22:33:00.935Z,69.45
2022-08-26T22:34:03.718Z,69.5
2022-08-26T22:35:29.700Z,69.26
2022-08-26T22:36:08.312Z,69.28
2022-08-26T22:37:11.069Z,69.01
2022-08-26T22:38:13.830Z,68.86
2022-08-26T22:39:16.603Z,68.7
2022-08-26T22:40:20.487Z,68.45
2022-08-26T22:41:20.654Z,68.77
2022-08-26T22:42:23.444Z,68.71
2022-08-26T22:43:26.202Z,68.44
2022-08-26T22:44:28.977Z,68.46
2022-08-26T22:45:34.670Z,68.99
2022-08-26T22:46:32.301Z,68.9
2022-08-26T22:47:37.264Z,68.31
2022-08-26T22:48:37.591Z,68.56
2022-08-26T22:49:40.399Z,68.87
2022-08-26T22:50:43.191Z,68.94
2022-08-26T22:51:45.999Z,69.47
2022-08-26T22:52:48.787Z,69.13
2022-08-26T22:53:51.565Z,68.98
2022-08-26T22:54:54.353Z,69.37
2022-08-26T22:55:57.123Z,69.25
2022-08-26T22:56:59.918Z,69.49
2022-08-26T22:58:02.762Z,69.28
2022-08-26T22:59:05.734Z,69.89
2022-08-26T23:00:11.482Z,69.86
2022-08-26T23:01:10.958Z,70.18
2022-08-26T23:02:13.970Z,70.26
2022-08-26T23:03:16.964Z,69.95
2022-08-26T23:04:20.010Z,70.04
2022-08-26T23:05:22.778Z,69.79
2022-08-26T23:06:25.613Z,70.38
2022-08-26T23:07:28.385Z,70.11
2022-08-26T23:08:31.184Z,69.92
2022-08-26T23:09:33.964Z,69.86
2022-08-26T23:10:36.743Z,69.72
2022-08-26T23:11:42.521Z,69.68
2022-08-26T23:12:41.831Z,69.61
2022-08-26T23:13:44.635Z,69.68
2022-08-26T23:14:47.411Z,69.5
2022-08-26T23:15:50.205Z,69.29
2022-08-26T23:16:53.341Z,69.24
2022-08-26T23:17:59.147Z,69.22
2022-08-26T23:18:55.057Z,69.06
2022-08-26T23:19:57.830Z,69.26
2022-08-26T23:21:00.633Z,68.96
2022-08-26T23:22:03.401Z,68.8
2022-08-26T23:23:06.186Z,68.89
2022-08-26T23:24:08.992Z,68.54
2022-08-26T23:25:11.957Z,68.54
2022-08-26T23:26:17.957Z,68.4
2022-08-26T23:27:17.310Z,68.31
2022-08-26T23:28:20.091Z,68.44
2022-08-26T23:29:22.870Z,68.59
2022-08-26T23:30:25.640Z,68.53
2022-08-26T23:31:31.850Z,68.67
2022-08-26T23:32:29.561Z,68.76
2022-08-26T23:33:32.330Z,68.71
2022-08-26T23:34:35.125Z,68.46
2022-08-26T23:35:35.181Z,68.07
2022-08-26T23:36:37.965Z,67.9
2022-08-26T23:37:41.206Z,67.71
2022-08-26T23:38:44.014Z,67.78
2022-08-26T23:39:44.349Z,67.75
2022-08-26T23:40:47.190Z,67.18
2022-08-26T23:41:49.939Z,67.05
2022-08-26T23:42:52.691Z,67.1
2022-08-26T23:43:55.446Z,67.08
2022-08-26T23:44:58.204Z,66.87
2022-08-26T23:46:01.071Z,66.7
2022-08-26T23:47:04.030Z,66.48
2022-08-26T23:48:07.130Z,65.97
2022-08-26T23:49:10.088Z,65.91
2022-08-26T23:50:12.847Z,65.67
2022-08-26T23:51:15.636Z,65.97
2022-08-26T23:52:18.439Z,65.75
2022-08-26T23:53:21.224Z,65.83
2022-08-26T23:54:24.001Z,65.77
2022-08-26T23:55:26.760Z,65.52
2022-08-26T23:56:29.540Z,65.34
2022-08-26T23:57:32.298Z,65.18
2022-08-26T23:58:35.050Z,64.95
2022-08-26T23:59:37.820Z,64.66
